sensor_id;sensor_type;location;lat;lon;timestamp;P1;durP1;ratioP1;P2;durP2;ratioP2
33902;SDS011;20194;50.950;5.346;2023-06-24T00:02:13;10.95;;;7.10;;
33902;SDS011;20194;50.950;5.346;2023-06-24T00:04:39;8.90;;;7.75;;
33902;SDS011;20194;50.950;5.346;2023-06-24T00:07:05;12.40;;;8.45;;
33902;SDS011;20194;50.950;5.346;2023-06-24T00:09:31;10.00;;;8.02;;
33902;SDS011;20194;50.950;5.346;2023-06-24T00:11:57;12.57;;;7.63;;
33902;SDS011;20194;50.950;5.346;2023-06-24T00:14:26;14.10;;;8.27;;
33902;SDS011;20194;50.950;5.346;2023-06-24T00:16:52;9.63;;;7.55;;
33902;SDS011;20194;50.950;5.346;2023-06-24T00:19:19;12.23;;;8.70;;
33902;SDS011;20194;50.950;5.346;2023-06-24T00:21:48;12.57;;;8.80;;
33902;SDS011;20194;50.950;5.346;2023-06-24T00:24:20;12.73;;;8.00;;
33902;SDS011;20194;50.950;5.346;2023-06-24T00:26:53;15.55;;;9.18;;
33902;SDS011;20194;50.950;5.346;2023-06-24T00:29:19;11.15;;;7.82;;
33902;SDS011;20194;50.950;5.346;2023-06-24T00:31:45;16.15;;;8.38;;
33902;SDS011;20194;50.950;5.346;2023-06-24T00:34:11;18.58;;;8.60;;
33902;SDS011;20194;50.950;5.346;2023-06-24T00:36:37;14.13;;;8.20;;
33902;SDS011;20194;50.950;5.346;2023-06-24T00:39:03;11.30;;;8.15;;
33902;SDS011;20194;50.950;5.346;2023-06-24T00:41:33;12.23;;;8.38;;
33902;SDS011;20194;50.950;5.346;2023-06-24T00:43:59;10.88;;;7.88;;
33902;SDS011;20194;50.950;5.346;2023-06-24T00:46:26;18.63;;;9.20;;
33902;SDS011;20194;50.950;5.346;2023-06-24T00:49:00;14.98;;;8.20;;
33902;SDS011;20194;50.950;5.346;2023-06-24T00:51:27;18.60;;;8.60;;
33902;SDS011;20194;50.950;5.346;2023-06-24T00:53:58;15.10;;;8.40;;
33902;SDS011;20194;50.950;5.346;2023-06-24T00:56:30;20.67;;;8.85;;
33902;SDS011;20194;50.950;5.346;2023-06-24T00:58:58;19.17;;;8.73;;
33902;SDS011;20194;50.950;5.346;2023-06-24T01:01:27;13.90;;;8.35;;
33902;SDS011;20194;50.950;5.346;2023-06-24T01:04:00;16.35;;;9.10;;
33902;SDS011;20194;50.950;5.346;2023-06-24T01:06:27;16.17;;;9.32;;
33902;SDS011;20194;50.950;5.346;2023-06-24T01:09:00;17.38;;;10.10;;
33902;SDS011;20194;50.950;5.346;2023-06-24T01:11:28;12.90;;;9.25;;
33902;SDS011;20194;50.950;5.346;2023-06-24T01:13:55;15.32;;;9.07;;
33902;SDS011;20194;50.950;5.346;2023-06-24T01:16:42;11.45;;;8.55;;
33902;SDS011;20194;50.950;5.346;2023-06-24T01:19:23;11.63;;;9.43;;
33902;SDS011;20194;50.950;5.346;2023-06-24T01:33:36;15.18;;;9.68;;
33902;SDS011;20194;50.950;5.346;2023-06-24T01:36:16;20.33;;;9.63;;
33902;SDS011;20194;50.950;5.346;2023-06-24T01:38:46;17.48;;;10.00;;
33902;SDS011;20194;50.950;5.346;2023-06-24T01:41:18;14.55;;;9.80;;
33902;SDS011;20194;50.950;5.346;2023-06-24T01:43:47;16.33;;;10.00;;
33902;SDS011;20194;50.950;5.346;2023-06-24T01:46:20;20.33;;;9.35;;
33902;SDS011;20194;50.950;5.346;2023-06-24T01:48:47;12.55;;;9.57;;
33902;SDS011;20194;50.950;5.346;2023-06-24T01:51:20;18.60;;;10.55;;
33902;SDS011;20194;50.950;5.346;2023-06-24T01:53:49;15.73;;;10.25;;
33902;SDS011;20194;50.950;5.346;2023-06-24T01:56:19;16.40;;;10.10;;
33902;SDS011;20194;50.950;5.346;2023-06-24T01:58:48;16.05;;;8.73;;
33902;SDS011;20194;50.950;5.346;2023-06-24T02:01:15;17.35;;;10.05;;
33902;SDS011;20194;50.950;5.346;2023-06-24T02:03:42;16.48;;;9.52;;
33902;SDS011;20194;50.950;5.346;2023-06-24T02:06:09;18.55;;;10.35;;
33902;SDS011;20194;50.950;5.346;2023-06-24T02:08:37;15.75;;;9.38;;
33902;SDS011;20194;50.950;5.346;2023-06-24T02:11:04;15.70;;;9.32;;
33902;SDS011;20194;50.950;5.346;2023-06-24T02:13:32;15.60;;;10.00;;
33902;SDS011;20194;50.950;5.346;2023-06-24T02:16:04;19.92;;;9.77;;
33902;SDS011;20194;50.950;5.346;2023-06-24T02:18:33;21.40;;;9.18;;
33902;SDS011;20194;50.950;5.346;2023-06-24T02:21:00;18.60;;;9.68;;
33902;SDS011;20194;50.950;5.346;2023-06-24T02:23:28;20.08;;;9.82;;
33902;SDS011;20194;50.950;5.346;2023-06-24T02:25:55;17.67;;;9.65;;
33902;SDS011;20194;50.950;5.346;2023-06-24T02:28:22;18.10;;;9.88;;
33902;SDS011;20194;50.950;5.346;2023-06-24T02:30:49;14.70;;;9.63;;
33902;SDS011;20194;50.950;5.346;2023-06-24T02:33:16;19.95;;;9.75;;
33902;SDS011;20194;50.950;5.346;2023-06-24T02:35:42;20.13;;;10.70;;
33902;SDS011;20194;50.950;5.346;2023-06-24T02:38:10;20.88;;;10.38;;
33902;SDS011;20194;50.950;5.346;2023-06-24T02:40:36;13.82;;;9.50;;
33902;SDS011;20194;50.950;5.346;2023-06-24T02:43:02;19.25;;;10.18;;
33902;SDS011;20194;50.950;5.346;2023-06-24T02:45:28;19.00;;;10.20;;
33902;SDS011;20194;50.950;5.346;2023-06-24T02:47:54;19.67;;;9.23;;
33902;SDS011;20194;50.950;5.346;2023-06-24T02:50:21;15.57;;;9.77;;
33902;SDS011;20194;50.950;5.346;2023-06-24T02:52:47;15.88;;;9.55;;
33902;SDS011;20194;50.950;5.346;2023-06-24T02:55:14;17.02;;;9.43;;
33902;SDS011;20194;50.950;5.346;2023-06-24T02:57:40;16.02;;;9.20;;
33902;SDS011;20194;50.950;5.346;2023-06-24T03:00:07;19.40;;;9.23;;
33902;SDS011;20194;50.950;5.346;2023-06-24T03:02:40;17.50;;;10.10;;
33902;SDS011;20194;50.950;5.346;2023-06-24T03:05:07;17.13;;;10.57;;
33902;SDS011;20194;50.950;5.346;2023-06-24T03:07:34;18.60;;;10.98;;
33902;SDS011;20194;50.950;5.346;2023-06-24T03:10:02;17.73;;;10.75;;
33902;SDS011;20194;50.950;5.346;2023-06-24T03:12:30;19.48;;;11.10;;
33902;SDS011;20194;50.950;5.346;2023-06-24T03:14:57;17.15;;;10.50;;
33902;SDS011;20194;50.950;5.346;2023-06-24T03:17:22;18.75;;;9.95;;
33902;SDS011;20194;50.950;5.346;2023-06-24T03:19:49;17.35;;;9.80;;
33902;SDS011;20194;50.950;5.346;2023-06-24T03:22:15;21.98;;;10.88;;
33902;SDS011;20194;50.950;5.346;2023-06-24T03:24:42;17.90;;;9.63;;
33902;SDS011;20194;50.950;5.346;2023-06-24T03:27:08;18.35;;;10.32;;
33902;SDS011;20194;50.950;5.346;2023-06-24T03:29:33;18.95;;;9.77;;
33902;SDS011;20194;50.950;5.346;2023-06-24T03:31:59;19.40;;;9.60;;
33902;SDS011;20194;50.950;5.346;2023-06-24T03:34:25;18.05;;;9.73;;
33902;SDS011;20194;50.950;5.346;2023-06-24T03:36:53;27.42;;;10.43;;
33902;SDS011;20194;50.950;5.346;2023-06-24T03:39:20;23.60;;;10.95;;
33902;SDS011;20194;50.950;5.346;2023-06-24T03:41:46;23.55;;;10.52;;
33902;SDS011;20194;50.950;5.346;2023-06-24T03:44:12;24.05;;;11.82;;
33902;SDS011;20194;50.950;5.346;2023-06-24T03:46:37;19.95;;;10.38;;
33902;SDS011;20194;50.950;5.346;2023-06-24T03:49:03;16.35;;;10.68;;
33902;SDS011;20194;50.950;5.346;2023-06-24T03:51:30;21.20;;;11.30;;
33902;SDS011;20194;50.950;5.346;2023-06-24T03:53:56;23.48;;;11.35;;
33902;SDS011;20194;50.950;5.346;2023-06-24T03:56:22;20.13;;;11.02;;
33902;SDS011;20194;50.950;5.346;2023-06-24T03:58:48;23.08;;;10.45;;
33902;SDS011;20194;50.950;5.346;2023-06-24T04:01:13;17.50;;;9.48;;
33902;SDS011;20194;50.950;5.346;2023-06-24T04:03:39;18.77;;;12.13;;
33902;SDS011;20194;50.950;5.346;2023-06-24T04:06:05;22.27;;;10.65;;
33902;SDS011;20194;50.950;5.346;2023-06-24T04:08:31;21.42;;;10.65;;
33902;SDS011;20194;50.950;5.346;2023-06-24T04:10:57;18.00;;;10.90;;
33902;SDS011;20194;50.950;5.346;2023-06-24T04:13:27;19.15;;;12.23;;
33902;SDS011;20194;50.950;5.346;2023-06-24T04:15:53;19.00;;;10.18;;
33902;SDS011;20194;50.950;5.346;2023-06-24T04:18:19;18.75;;;11.32;;
33902;SDS011;20194;50.950;5.346;2023-06-24T04:20:48;24.60;;;11.80;;
33902;SDS011;20194;50.950;5.346;2023-06-24T04:23:13;20.45;;;10.88;;
33902;SDS011;20194;50.950;5.346;2023-06-24T04:25:40;24.50;;;11.77;;
33902;SDS011;20194;50.950;5.346;2023-06-24T04:28:07;16.58;;;11.55;;
33902;SDS011;20194;50.950;5.346;2023-06-24T04:30:33;18.58;;;10.40;;
33902;SDS011;20194;50.950;5.346;2023-06-24T04:33:04;18.45;;;11.68;;
33902;SDS011;20194;50.950;5.346;2023-06-24T04:35:30;22.83;;;12.07;;
33902;SDS011;20194;50.950;5.346;2023-06-24T04:37:56;18.15;;;9.30;;
33902;SDS011;20194;50.950;5.346;2023-06-24T04:40:22;15.50;;;9.68;;
33902;SDS011;20194;50.950;5.346;2023-06-24T04:42:48;18.67;;;9.95;;
33902;SDS011;20194;50.950;5.346;2023-06-24T04:45:14;16.02;;;10.13;;
33902;SDS011;20194;50.950;5.346;2023-06-24T04:47:40;16.52;;;9.65;;
33902;SDS011;20194;50.950;5.346;2023-06-24T04:50:06;16.52;;;9.15;;
33902;SDS011;20194;50.950;5.346;2023-06-24T04:52:34;20.20;;;9.32;;
33902;SDS011;20194;50.950;5.346;2023-06-24T04:55:00;15.10;;;8.68;;
33902;SDS011;20194;50.950;5.346;2023-06-24T04:57:30;13.57;;;8.15;;
33902;SDS011;20194;50.950;5.346;2023-06-24T04:59:56;13.80;;;8.73;;
33902;SDS011;20194;50.950;5.346;2023-06-24T05:02:22;15.40;;;7.95;;
33902;SDS011;20194;50.950;5.346;2023-06-24T05:04:49;14.50;;;7.68;;
33902;SDS011;20194;50.950;5.346;2023-06-24T05:07:16;12.73;;;8.00;;
33902;SDS011;20194;50.950;5.346;2023-06-24T05:09:42;12.10;;;7.18;;
33902;SDS011;20194;50.950;5.346;2023-06-24T05:12:09;13.10;;;7.45;;
33902;SDS011;20194;50.950;5.346;2023-06-24T05:14:35;10.05;;;6.57;;
33902;SDS011;20194;50.950;5.346;2023-06-24T05:17:01;11.60;;;6.68;;
33902;SDS011;20194;50.950;5.346;2023-06-24T05:19:27;12.57;;;7.15;;
33902;SDS011;20194;50.950;5.346;2023-06-24T05:21:53;9.73;;;6.90;;
33902;SDS011;20194;50.950;5.346;2023-06-24T05:24:19;13.15;;;7.18;;
33902;SDS011;20194;50.950;5.346;2023-06-24T05:26:45;10.52;;;6.40;;
33902;SDS011;20194;50.950;5.346;2023-06-24T05:29:13;10.40;;;6.88;;
33902;SDS011;20194;50.950;5.346;2023-06-24T05:31:39;10.57;;;6.70;;
33902;SDS011;20194;50.950;5.346;2023-06-24T05:34:05;10.93;;;5.95;;
33902;SDS011;20194;50.950;5.346;2023-06-24T05:36:31;13.48;;;6.57;;
33902;SDS011;20194;50.950;5.346;2023-06-24T05:38:57;9.38;;;6.22;;
33902;SDS011;20194;50.950;5.346;2023-06-24T05:41:22;7.93;;;5.68;;
33902;SDS011;20194;50.950;5.346;2023-06-24T05:43:49;11.25;;;5.95;;
33902;SDS011;20194;50.950;5.346;2023-06-24T05:46:14;10.73;;;6.70;;
33902;SDS011;20194;50.950;5.346;2023-06-24T05:48:40;12.20;;;5.68;;
33902;SDS011;20194;50.950;5.346;2023-06-24T05:51:07;10.43;;;5.57;;
33902;SDS011;20194;50.950;5.346;2023-06-24T05:53:34;13.60;;;5.68;;
33902;SDS011;20194;50.950;5.346;2023-06-24T05:56:00;10.05;;;5.00;;
33902;SDS011;20194;50.950;5.346;2023-06-24T05:58:25;8.63;;;4.95;;
33902;SDS011;20194;50.950;5.346;2023-06-24T06:00:51;6.95;;;4.72;;
33902;SDS011;20194;50.950;5.346;2023-06-24T06:03:17;12.10;;;5.47;;
33902;SDS011;20194;50.950;5.346;2023-06-24T06:05:42;6.82;;;4.75;;
33902;SDS011;20194;50.950;5.346;2023-06-24T06:08:08;11.65;;;4.50;;
33902;SDS011;20194;50.950;5.346;2023-06-24T06:10:34;9.07;;;4.68;;
33902;SDS011;20194;50.950;5.346;2023-06-24T06:12:59;11.13;;;4.78;;
33902;SDS011;20194;50.950;5.346;2023-06-24T06:15:25;7.43;;;4.40;;
33902;SDS011;20194;50.950;5.346;2023-06-24T06:17:51;11.43;;;5.65;;
33902;SDS011;20194;50.950;5.346;2023-06-24T06:20:17;9.10;;;4.95;;
33902;SDS011;20194;50.950;5.346;2023-06-24T06:22:43;12.63;;;5.40;;
33902;SDS011;20194;50.950;5.346;2023-06-24T06:25:08;6.65;;;4.65;;
33902;SDS011;20194;50.950;5.346;2023-06-24T06:27:34;5.90;;;3.88;;
33902;SDS011;20194;50.950;5.346;2023-06-24T06:30:00;5.78;;;4.40;;
33902;SDS011;20194;50.950;5.346;2023-06-24T06:32:26;7.72;;;4.32;;
33902;SDS011;20194;50.950;5.346;2023-06-24T06:34:52;7.07;;;4.13;;
33902;SDS011;20194;50.950;5.346;2023-06-24T06:37:17;8.43;;;4.40;;
33902;SDS011;20194;50.950;5.346;2023-06-24T06:39:43;9.48;;;4.45;;
33902;SDS011;20194;50.950;5.346;2023-06-24T06:42:09;8.75;;;3.90;;
33902;SDS011;20194;50.950;5.346;2023-06-24T06:44:34;4.95;;;3.85;;
33902;SDS011;20194;50.950;5.346;2023-06-24T06:47:00;6.20;;;3.47;;
33902;SDS011;20194;50.950;5.346;2023-06-24T06:49:26;5.35;;;3.65;;
33902;SDS011;20194;50.950;5.346;2023-06-24T06:51:53;5.82;;;3.78;;
33902;SDS011;20194;50.950;5.346;2023-06-24T06:54:20;9.38;;;4.18;;
33902;SDS011;20194;50.950;5.346;2023-06-24T06:56:45;7.00;;;3.88;;
33902;SDS011;20194;50.950;5.346;2023-06-24T06:59:11;6.65;;;3.78;;
33902;SDS011;20194;50.950;5.346;2023-06-24T07:01:37;6.63;;;3.88;;
33902;SDS011;20194;50.950;5.346;2023-06-24T07:04:03;5.70;;;3.63;;
33902;SDS011;20194;50.950;5.346;2023-06-24T07:06:28;5.63;;;3.70;;
33902;SDS011;20194;50.950;5.346;2023-06-24T07:08:54;8.18;;;3.60;;
33902;SDS011;20194;50.950;5.346;2023-06-24T07:11:20;5.63;;;4.20;;
33902;SDS011;20194;50.950;5.346;2023-06-24T07:13:45;5.80;;;3.95;;
33902;SDS011;20194;50.950;5.346;2023-06-24T07:16:11;8.25;;;4.28;;
33902;SDS011;20194;50.950;5.346;2023-06-24T07:18:37;9.05;;;3.83;;
33902;SDS011;20194;50.950;5.346;2023-06-24T07:21:02;7.80;;;4.18;;
33902;SDS011;20194;50.950;5.346;2023-06-24T07:23:28;6.25;;;3.70;;
33902;SDS011;20194;50.950;5.346;2023-06-24T07:25:54;9.00;;;4.28;;
33902;SDS011;20194;50.950;5.346;2023-06-24T07:28:20;6.90;;;3.88;;
33902;SDS011;20194;50.950;5.346;2023-06-24T07:30:45;6.72;;;3.42;;
33902;SDS011;20194;50.950;5.346;2023-06-24T07:33:11;7.85;;;3.88;;
33902;SDS011;20194;50.950;5.346;2023-06-24T07:35:37;6.78;;;2.97;;
33902;SDS011;20194;50.950;5.346;2023-06-24T07:38:02;4.93;;;2.92;;
33902;SDS011;20194;50.950;5.346;2023-06-24T07:40:28;4.18;;;2.85;;
33902;SDS011;20194;50.950;5.346;2023-06-24T07:42:54;3.33;;;2.72;;
33902;SDS011;20194;50.950;5.346;2023-06-24T07:45:19;5.72;;;2.90;;
33902;SDS011;20194;50.950;5.346;2023-06-24T07:47:45;4.10;;;2.65;;
33902;SDS011;20194;50.950;5.346;2023-06-24T07:50:11;5.07;;;2.22;;
33902;SDS011;20194;50.950;5.346;2023-06-24T07:52:38;5.68;;;3.10;;
33902;SDS011;20194;50.950;5.346;2023-06-24T07:55:04;5.13;;;2.70;;
33902;SDS011;20194;50.950;5.346;2023-06-24T07:57:31;4.85;;;2.78;;
33902;SDS011;20194;50.950;5.346;2023-06-24T07:59:56;10.65;;;3.38;;
33902;SDS011;20194;50.950;5.346;2023-06-24T08:02:22;4.63;;;2.20;;
33902;SDS011;20194;50.950;5.346;2023-06-24T08:04:51;4.20;;;2.13;;
33902;SDS011;20194;50.950;5.346;2023-06-24T08:07:17;10.10;;;3.30;;
33902;SDS011;20194;50.950;5.346;2023-06-24T08:09:42;3.13;;;2.30;;
33902;SDS011;20194;50.950;5.346;2023-06-24T08:12:08;2.72;;;2.22;;
33902;SDS011;20194;50.950;5.346;2023-06-24T08:14:34;4.53;;;2.75;;
33902;SDS011;20194;50.950;5.346;2023-06-24T08:17:00;3.90;;;2.40;;
33902;SDS011;20194;50.950;5.346;2023-06-24T08:19:26;3.15;;;2.30;;
33902;SDS011;20194;50.950;5.346;2023-06-24T08:21:52;3.33;;;2.30;;
33902;SDS011;20194;50.950;5.346;2023-06-24T08:24:18;3.42;;;2.40;;
33902;SDS011;20194;50.950;5.346;2023-06-24T08:26:44;3.28;;;2.33;;
33902;SDS011;20194;50.950;5.346;2023-06-24T08:29:09;6.38;;;2.25;;
33902;SDS011;20194;50.950;5.346;2023-06-24T08:31:35;5.55;;;2.70;;
33902;SDS011;20194;50.950;5.346;2023-06-24T08:34:01;4.90;;;2.30;;
33902;SDS011;20194;50.950;5.346;2023-06-24T08:36:27;4.28;;;2.15;;
33902;SDS011;20194;50.950;5.346;2023-06-24T08:38:54;3.28;;;2.40;;
33902;SDS011;20194;50.950;5.346;2023-06-24T08:41:20;4.93;;;2.50;;
33902;SDS011;20194;50.950;5.346;2023-06-24T08:43:47;3.63;;;2.10;;
33902;SDS011;20194;50.950;5.346;2023-06-24T08:46:13;3.38;;;2.40;;
33902;SDS011;20194;50.950;5.346;2023-06-24T08:48:42;4.90;;;2.78;;
33902;SDS011;20194;50.950;5.346;2023-06-24T08:51:09;3.13;;;2.25;;
33902;SDS011;20194;50.950;5.346;2023-06-24T08:53:38;5.50;;;2.15;;
33902;SDS011;20194;50.950;5.346;2023-06-24T08:56:06;3.67;;;2.30;;
33902;SDS011;20194;50.950;5.346;2023-06-24T08:58:31;5.93;;;2.30;;
33902;SDS011;20194;50.950;5.346;2023-06-24T09:00:58;3.00;;;2.28;;
33902;SDS011;20194;50.950;5.346;2023-06-24T09:03:24;1.98;;;1.63;;
33902;SDS011;20194;50.950;5.346;2023-06-24T09:05:50;3.00;;;2.25;;
33902;SDS011;20194;50.950;5.346;2023-06-24T09:08:16;2.67;;;1.80;;
33902;SDS011;20194;50.950;5.346;2023-06-24T09:10:43;2.40;;;2.10;;
33902;SDS011;20194;50.950;5.346;2023-06-24T09:13:09;4.80;;;2.58;;
33902;SDS011;20194;50.950;5.346;2023-06-24T09:15:36;4.05;;;2.38;;
33902;SDS011;20194;50.950;5.346;2023-06-24T09:18:03;4.22;;;2.40;;
33902;SDS011;20194;50.950;5.346;2023-06-24T09:20:30;4.57;;;2.35;;
33902;SDS011;20194;50.950;5.346;2023-06-24T09:23:03;2.95;;;2.25;;
33902;SDS011;20194;50.950;5.346;2023-06-24T09:25:30;3.28;;;1.90;;
33902;SDS011;20194;50.950;5.346;2023-06-24T09:28:01;2.75;;;2.35;;
33902;SDS011;20194;50.950;5.346;2023-06-24T09:30:28;2.83;;;2.15;;
33902;SDS011;20194;50.950;5.346;2023-06-24T09:32:54;3.10;;;2.17;;
33902;SDS011;20194;50.950;5.346;2023-06-24T09:35:21;3.50;;;2.35;;
33902;SDS011;20194;50.950;5.346;2023-06-24T09:37:48;3.30;;;2.63;;
33902;SDS011;20194;50.950;5.346;2023-06-24T09:40:18;3.75;;;2.20;;
33902;SDS011;20194;50.950;5.346;2023-06-24T09:45:23;3.85;;;2.58;;
33902;SDS011;20194;50.950;5.346;2023-06-24T09:47:51;2.97;;;2.35;;
33902;SDS011;20194;50.950;5.346;2023-06-24T09:50:17;2.58;;;1.80;;
33902;SDS011;20194;50.950;5.346;2023-06-24T09:52:44;6.05;;;3.17;;
33902;SDS011;20194;50.950;5.346;2023-06-24T09:55:14;3.90;;;2.45;;
33902;SDS011;20194;50.950;5.346;2023-06-24T09:57:47;3.85;;;2.40;;
33902;SDS011;20194;50.950;5.346;2023-06-24T10:00:17;6.30;;;2.67;;
33902;SDS011;20194;50.950;5.346;2023-06-24T10:02:44;3.30;;;2.70;;
33902;SDS011;20194;50.950;5.346;2023-06-24T10:05:11;6.78;;;3.00;;
33902;SDS011;20194;50.950;5.346;2023-06-24T10:07:39;4.13;;;2.53;;
33902;SDS011;20194;50.950;5.346;2023-06-24T10:10:05;5.57;;;2.80;;
33902;SDS011;20194;50.950;5.346;2023-06-24T10:12:33;3.15;;;2.70;;
33902;SDS011;20194;50.950;5.346;2023-06-24T10:14:59;4.60;;;2.83;;
33902;SDS011;20194;50.950;5.346;2023-06-24T10:17:26;4.75;;;2.63;;
33902;SDS011;20194;50.950;5.346;2023-06-24T10:19:52;3.70;;;2.33;;
33902;SDS011;20194;50.950;5.346;2023-06-24T10:22:21;6.95;;;2.55;;
33902;SDS011;20194;50.950;5.346;2023-06-24T10:24:54;4.10;;;2.95;;
33902;SDS011;20194;50.950;5.346;2023-06-24T10:27:22;3.15;;;2.17;;
33902;SDS011;20194;50.950;5.346;2023-06-24T10:29:48;4.10;;;2.20;;
33902;SDS011;20194;50.950;5.346;2023-06-24T10:32:17;4.03;;;2.78;;
33902;SDS011;20194;50.950;5.346;2023-06-24T10:34:44;5.50;;;2.42;;
33902;SDS011;20194;50.950;5.346;2023-06-24T10:37:17;3.22;;;2.17;;
33902;SDS011;20194;50.950;5.346;2023-06-24T10:50:04;5.47;;;3.30;;
33902;SDS011;20194;50.950;5.346;2023-06-24T10:52:30;10.90;;;2.67;;
33902;SDS011;20194;50.950;5.346;2023-06-24T10:54:57;4.93;;;2.90;;
33902;SDS011;20194;50.950;5.346;2023-06-24T10:57:23;3.38;;;2.20;;
33902;SDS011;20194;50.950;5.346;2023-06-24T10:59:50;3.90;;;2.60;;
33902;SDS011;20194;50.950;5.346;2023-06-24T11:02:20;5.05;;;2.20;;
33902;SDS011;20194;50.950;5.346;2023-06-24T11:07:24;3.88;;;2.38;;
33902;SDS011;20194;50.950;5.346;2023-06-24T11:09:51;2.80;;;2.13;;
33902;SDS011;20194;50.950;5.346;2023-06-24T11:12:19;3.22;;;2.00;;
33902;SDS011;20194;50.950;5.346;2023-06-24T11:14:49;3.35;;;2.00;;
33902;SDS011;20194;50.950;5.346;2023-06-24T11:17:15;2.13;;;1.90;;
33902;SDS011;20194;50.950;5.346;2023-06-24T11:19:40;3.75;;;2.10;;
33902;SDS011;20194;50.950;5.346;2023-06-24T11:22:08;3.25;;;2.22;;
33902;SDS011;20194;50.950;5.346;2023-06-24T11:24:34;2.45;;;2.10;;
33902;SDS011;20194;50.950;5.346;2023-06-24T11:27:01;3.38;;;1.88;;
33902;SDS011;20194;50.950;5.346;2023-06-24T11:29:29;5.13;;;2.20;;
33902;SDS011;20194;50.950;5.346;2023-06-24T11:31:55;2.17;;;1.98;;
33902;SDS011;20194;50.950;5.346;2023-06-24T11:34:21;6.13;;;2.55;;
33902;SDS011;20194;50.950;5.346;2023-06-24T11:36:47;3.75;;;2.00;;
33902;SDS011;20194;50.950;5.346;2023-06-24T11:39:23;2.08;;;1.98;;
33902;SDS011;20194;50.950;5.346;2023-06-24T11:41:50;3.95;;;2.28;;
33902;SDS011;20194;50.950;5.346;2023-06-24T11:44:17;3.10;;;1.90;;
33902;SDS011;20194;50.950;5.346;2023-06-24T11:46:46;4.03;;;2.88;;
33902;SDS011;20194;50.950;5.346;2023-06-24T11:49:12;4.07;;;2.10;;
33902;SDS011;20194;50.950;5.346;2023-06-24T11:51:45;6.57;;;2.40;;
33902;SDS011;20194;50.950;5.346;2023-06-24T11:54:16;2.55;;;2.20;;
33902;SDS011;20194;50.950;5.346;2023-06-24T11:56:43;4.93;;;2.42;;
33902;SDS011;20194;50.950;5.346;2023-06-24T11:59:17;2.50;;;2.22;;
33902;SDS011;20194;50.950;5.346;2023-06-24T12:01:43;2.63;;;2.10;;
33902;SDS011;20194;50.950;5.346;2023-06-24T12:04:12;2.95;;;1.73;;
33902;SDS011;20194;50.950;5.346;2023-06-24T12:06:38;2.22;;;1.92;;
33902;SDS011;20194;50.950;5.346;2023-06-24T12:09:05;3.38;;;2.15;;
33902;SDS011;20194;50.950;5.346;2023-06-24T12:11:31;3.40;;;2.22;;
33902;SDS011;20194;50.950;5.346;2023-06-24T12:13:56;4.10;;;2.10;;
33902;SDS011;20194;50.950;5.346;2023-06-24T12:16:22;4.35;;;2.40;;
33902;SDS011;20194;50.950;5.346;2023-06-24T12:18:48;2.25;;;1.83;;
33902;SDS011;20194;50.950;5.346;2023-06-24T12:21:13;2.38;;;2.10;;
33902;SDS011;20194;50.950;5.346;2023-06-24T12:23:39;5.43;;;1.92;;
33902;SDS011;20194;50.950;5.346;2023-06-24T12:26:05;3.80;;;2.10;;
33902;SDS011;20194;50.950;5.346;2023-06-24T12:28:30;3.08;;;2.10;;
33902;SDS011;20194;50.950;5.346;2023-06-24T12:30:56;7.20;;;1.92;;
33902;SDS011;20194;50.950;5.346;2023-06-24T12:33:22;4.38;;;2.25;;
33902;SDS011;20194;50.950;5.346;2023-06-24T12:35:48;4.32;;;1.83;;
33902;SDS011;20194;50.950;5.346;2023-06-24T12:38:13;3.22;;;2.20;;
33902;SDS011;20194;50.950;5.346;2023-06-24T12:40:40;5.05;;;2.20;;
33902;SDS011;20194;50.950;5.346;2023-06-24T12:43:06;5.03;;;2.05;;
33902;SDS011;20194;50.950;5.346;2023-06-24T12:45:32;3.40;;;2.47;;
33902;SDS011;20194;50.950;5.346;2023-06-24T12:47:58;2.80;;;2.10;;
33902;SDS011;20194;50.950;5.346;2023-06-24T12:50:25;3.00;;;2.20;;
33902;SDS011;20194;50.950;5.346;2023-06-24T12:52:50;7.45;;;2.15;;
33902;SDS011;20194;50.950;5.346;2023-06-24T12:55:17;4.00;;;2.00;;
33902;SDS011;20194;50.950;5.346;2023-06-24T12:57:45;2.35;;;2.03;;
33902;SDS011;20194;50.950;5.346;2023-06-24T13:00:11;2.67;;;2.03;;
33902;SDS011;20194;50.950;5.346;2023-06-24T13:02:37;2.40;;;1.80;;
33902;SDS011;20194;50.950;5.346;2023-06-24T13:05:04;2.45;;;2.15;;
33902;SDS011;20194;50.950;5.346;2023-06-24T13:07:30;4.78;;;2.33;;
33902;SDS011;20194;50.950;5.346;2023-06-24T13:09:55;5.72;;;2.10;;
33902;SDS011;20194;50.950;5.346;2023-06-24T13:12:21;3.40;;;2.05;;
33902;SDS011;20194;50.950;5.346;2023-06-24T13:14:47;2.22;;;1.90;;
33902;SDS011;20194;50.950;5.346;2023-06-24T13:17:13;2.65;;;2.00;;
33902;SDS011;20194;50.950;5.346;2023-06-24T13:19:39;2.47;;;2.03;;
33902;SDS011;20194;50.950;5.346;2023-06-24T13:22:04;5.43;;;1.77;;
33902;SDS011;20194;50.950;5.346;2023-06-24T13:24:30;4.90;;;1.67;;
33902;SDS011;20194;50.950;5.346;2023-06-24T13:26:55;3.10;;;2.08;;
33902;SDS011;20194;50.950;5.346;2023-06-24T13:29:21;2.53;;;1.70;;
33902;SDS011;20194;50.950;5.346;2023-06-24T13:31:47;3.67;;;1.70;;
33902;SDS011;20194;50.950;5.346;2023-06-24T13:34:13;2.28;;;1.63;;
33902;SDS011;20194;50.950;5.346;2023-06-24T13:36:38;2.78;;;1.83;;
33902;SDS011;20194;50.950;5.346;2023-06-24T13:39:05;1.92;;;1.58;;
33902;SDS011;20194;50.950;5.346;2023-06-24T13:41:33;2.85;;;1.65;;
33902;SDS011;20194;50.950;5.346;2023-06-24T13:43:59;3.08;;;1.48;;
33902;SDS011;20194;50.950;5.346;2023-06-24T13:46:27;2.75;;;1.50;;
33902;SDS011;20194;50.950;5.346;2023-06-24T13:48:53;4.32;;;2.03;;
33902;SDS011;20194;50.950;5.346;2023-06-24T13:51:20;2.38;;;1.67;;
33902;SDS011;20194;50.950;5.346;2023-06-24T13:53:47;1.83;;;1.67;;
33902;SDS011;20194;50.950;5.346;2023-06-24T13:56:15;2.13;;;1.75;;
33902;SDS011;20194;50.950;5.346;2023-06-24T13:58:41;3.00;;;1.92;;
33902;SDS011;20194;50.950;5.346;2023-06-24T14:01:07;2.40;;;1.70;;
33902;SDS011;20194;50.950;5.346;2023-06-24T14:03:33;3.83;;;2.08;;
33902;SDS011;20194;50.950;5.346;2023-06-24T14:05:59;2.33;;;1.80;;
33902;SDS011;20194;50.950;5.346;2023-06-24T14:08:26;1.95;;;1.75;;
33902;SDS011;20194;50.950;5.346;2023-06-24T14:10:53;3.35;;;2.05;;
33902;SDS011;20194;50.950;5.346;2023-06-24T14:13:19;2.60;;;2.03;;
33902;SDS011;20194;50.950;5.346;2023-06-24T14:15:45;3.10;;;1.60;;
33902;SDS011;20194;50.950;5.346;2023-06-24T14:18:11;3.75;;;2.00;;
33902;SDS011;20194;50.950;5.346;2023-06-24T14:20:39;4.97;;;2.20;;
33902;SDS011;20194;50.950;5.346;2023-06-24T14:23:05;2.58;;;1.52;;
33902;SDS011;20194;50.950;5.346;2023-06-24T14:25:30;1.77;;;1.60;;
33902;SDS011;20194;50.950;5.346;2023-06-24T14:27:56;1.70;;;1.60;;
33902;SDS011;20194;50.950;5.346;2023-06-24T14:30:22;1.63;;;1.50;;
33902;SDS011;20194;50.950;5.346;2023-06-24T14:32:48;2.13;;;1.58;;
33902;SDS011;20194;50.950;5.346;2023-06-24T14:35:14;4.05;;;1.63;;
33902;SDS011;20194;50.950;5.346;2023-06-24T14:37:40;2.70;;;1.65;;
33902;SDS011;20194;50.950;5.346;2023-06-24T14:40:07;3.67;;;1.77;;
33902;SDS011;20194;50.950;5.346;2023-06-24T14:42:35;3.30;;;2.10;;
33902;SDS011;20194;50.950;5.346;2023-06-24T14:45:01;2.78;;;1.95;;
33902;SDS011;20194;50.950;5.346;2023-06-24T14:47:26;3.60;;;1.63;;
33902;SDS011;20194;50.950;5.346;2023-06-24T14:49:52;2.13;;;1.90;;
33902;SDS011;20194;50.950;5.346;2023-06-24T14:52:18;2.35;;;1.58;;
33902;SDS011;20194;50.950;5.346;2023-06-24T14:54:46;4.25;;;1.80;;
33902;SDS011;20194;50.950;5.346;2023-06-24T14:57:12;3.85;;;1.88;;
33902;SDS011;20194;50.950;5.346;2023-06-24T14:59:38;2.20;;;1.75;;
33902;SDS011;20194;50.950;5.346;2023-06-24T15:02:03;2.22;;;1.80;;
33902;SDS011;20194;50.950;5.346;2023-06-24T15:04:30;2.90;;;2.08;;
33902;SDS011;20194;50.950;5.346;2023-06-24T15:06:55;2.67;;;1.95;;